sensor_id;sensor_type;location;lat;lon;timestamp;temperature;humidity
45315;SHT31;31051;51.540;5.852;2023-04-25T00:11:42;6.5;84.4
45315;SHT31;31051;51.540;5.852;2023-04-25T00:24:41;6.5;84.9
45315;SHT31;31051;51.540;5.852;2023-04-25T00:37:40;6.4;85.0
45315;SHT31;31051;51.540;5.852;2023-04-25T00:50:39;6.1;85.5
45315;SHT31;31051;51.540;5.852;2023-04-25T01:03:39;6.0;85.9
45315;SHT31;31051;51.540;5.852;2023-04-25T01:16:38;6.0;86.2
45315;SHT31;31051;51.540;5.852;2023-04-25T01:29:37;5.9;86.3
45315;SHT31;31051;51.540;5.852;2023-04-25T01:42:36;5.6;87.0
45315;SHT31;31051;51.540;5.852;2023-04-25T01:55:36;5.5;87.0
45315;SHT31;31051;51.540;5.852;2023-04-25T02:08:35;5.3;87.8
45315;SHT31;31051;51.540;5.852;2023-04-25T02:21:34;5.3;88.1
45315;SHT31;31051;51.540;5.852;2023-04-25T02:34:33;5.3;87.9
45315;SHT31;31051;51.540;5.852;2023-04-25T02:47:32;5.1;87.9
45315;SHT31;31051;51.540;5.852;2023-04-25T03:00:32;4.9;87.5
45315;SHT31;31051;51.540;5.852;2023-04-25T03:13:31;4.7;87.5
45315;SHT31;31051;51.540;5.852;2023-04-25T03:26:30;4.5;88.0
45315;SHT31;31051;51.540;5.852;2023-04-25T03:39:29;4.4;88.4
45315;SHT31;31051;51.540;5.852;2023-04-25T03:52:29;4.3;88.3
45315;SHT31;31051;51.540;5.852;2023-04-25T04:05:28;4.4;89.5
45315;SHT31;31051;51.540;5.852;2023-04-25T04:18:27;4.4;88.5
45315;SHT31;31051;51.540;5.852;2023-04-25T04:31:26;4.3;88.9
45315;SHT31;31051;51.540;5.852;2023-04-25T04:44:25;4.4;88.7
45315;SHT31;31051;51.540;5.852;2023-04-25T04:57:25;4.4;88.9
45315;SHT31;31051;51.540;5.852;2023-04-25T05:10:24;4.6;89.0
45315;SHT31;31051;51.540;5.852;2023-04-25T05:23:23;4.9;88.4
45315;SHT31;31051;51.540;5.852;2023-04-25T05:36:22;5.3;87.6
45315;SHT31;31051;51.540;5.852;2023-04-25T05:49:21;5.6;85.3
45315;SHT31;31051;51.540;5.852;2023-04-25T06:02:21;5.9;84.1
45315;SHT31;31051;51.540;5.852;2023-04-25T06:15:20;6.2;83.0
45315;SHT31;31051;51.540;5.852;2023-04-25T06:28:19;6.6;79.5
45315;SHT31;31051;51.540;5.852;2023-04-25T06:41:18;6.8;78.3
45315;SHT31;31051;51.540;5.852;2023-04-25T06:54:18;7.1;75.5
45315;SHT31;31051;51.540;5.852;2023-04-25T07:07:17;7.4;73.3
45315;SHT31;31051;51.540;5.852;2023-04-25T07:20:16;7.9;73.4
45315;SHT31;31051;51.540;5.852;2023-04-25T07:33:15;8.1;69.6
45315;SHT31;31051;51.540;5.852;2023-04-25T07:46:15;8.7;68.0
45315;SHT31;31051;51.540;5.852;2023-04-25T07:59:14;8.7;69.9
45315;SHT31;31051;51.540;5.852;2023-04-25T08:12:13;9.1;65.3
45315;SHT31;31051;51.540;5.852;2023-04-25T08:25:12;9.1;66.8
45315;SHT31;31051;51.540;5.852;2023-04-25T08:38:12;9.0;65.8
45315;SHT31;31051;51.540;5.852;2023-04-25T08:51:11;9.1;62.7
45315;SHT31;31051;51.540;5.852;2023-04-25T09:04:10;9.5;57.3
45315;SHT31;31051;51.540;5.852;2023-04-25T09:17:09;9.5;59.9
45315;SHT31;31051;51.540;5.852;2023-04-25T09:30:09;9.4;59.2
45315;SHT31;31051;51.540;5.852;2023-04-25T09:43:08;9.8;59.6
45315;SHT31;31051;51.540;5.852;2023-04-25T09:56:07;9.9;61.3
45315;SHT31;31051;51.540;5.852;2023-04-25T10:09:07;7.5;70.5
45315;SHT31;31051;51.540;5.852;2023-04-25T10:22:06;6.4;72.1
45315;SHT31;31051;51.540;5.852;2023-04-25T10:35:05;7.6;73.1
45315;SHT31;31051;51.540;5.852;2023-04-25T10:48:04;8.5;71.4
45315;SHT31;31051;51.540;5.852;2023-04-25T11:01:04;9.9;60.7
45315;SHT31;31051;51.540;5.852;2023-04-25T11:14:03;10.8;58.3
45315;SHT31;31051;51.540;5.852;2023-04-25T11:27:02;9.3;63.7
45315;SHT31;31051;51.540;5.852;2023-04-25T11:40:01;9.0;62.7
45315;SHT31;31051;51.540;5.852;2023-04-25T11:53:01;8.8;65.5
45315;SHT31;31051;51.540;5.852;2023-04-25T12:06:00;9.7;66.6
45315;SHT31;31051;51.540;5.852;2023-04-25T12:18:59;10.4;60.5
45315;SHT31;31051;51.540;5.852;2023-04-25T12:31:58;10.9;59.6
45315;SHT31;31051;51.540;5.852;2023-04-25T12:44:58;10.7;56.5
45315;SHT31;31051;51.540;5.852;2023-04-25T12:57:57;10.7;49.9
45315;SHT31;31051;51.540;5.852;2023-04-25T13:10:56;11.3;47.4
45315;SHT31;31051;51.540;5.852;2023-04-25T13:36:55;10.3;61.3
45315;SHT31;31051;51.540;5.852;2023-04-25T13:49:54;10.3;58.9
45315;SHT31;31051;51.540;5.852;2023-04-25T14:02:53;10.4;56.7
45315;SHT31;31051;51.540;5.852;2023-04-25T14:15:53;10.6;53.0
45315;SHT31;31051;51.540;5.852;2023-04-25T14:28:52;10.3;55.3
45315;SHT31;31051;51.540;5.852;2023-04-25T14:41:51;10.9;53.8
45315;SHT31;31051;51.540;5.852;2023-04-25T14:54:51;10.8;48.9
45315;SHT31;31051;51.540;5.852;2023-04-25T15:07:50;10.6;52.3
45315;SHT31;31051;51.540;5.852;2023-04-25T15:20:49;11.0;51.4
45315;SHT31;31051;51.540;5.852;2023-04-25T15:33:48;10.5;54.5
45315;SHT31;31051;51.540;5.852;2023-04-25T15:46:48;9.8;54.9
45315;SHT31;31051;51.540;5.852;2023-04-25T15:59:47;10.0;58.4
45315;SHT31;31051;51.540;5.852;2023-04-25T16:12:46;10.9;47.8
45315;SHT31;31051;51.540;5.852;2023-04-25T16:25:46;10.8;56.4
45315;SHT31;31051;51.540;5.852;2023-04-25T16:38:45;10.4;52.9
45315;SHT31;31051;51.540;5.852;2023-04-25T16:51:44;9.3;61.6
45315;SHT31;31051;51.540;5.852;2023-04-25T17:04:43;9.0;58.0
45315;SHT31;31051;51.540;5.852;2023-04-25T17:17:43;9.0;56.6
45315;SHT31;31051;51.540;5.852;2023-04-25T17:30:42;8.8;56.6
45315;SHT31;31051;51.540;5.852;2023-04-25T17:43:41;9.2;57.8
45315;SHT31;31051;51.540;5.852;2023-04-25T17:56:41;9.5;58.5
45315;SHT31;31051;51.540;5.852;2023-04-25T18:22:39;8.4;59.6
45315;SHT31;31051;51.540;5.852;2023-04-25T18:35:38;7.7;62.4
45315;SHT31;31051;51.540;5.852;2023-04-25T18:48:38;7.2;64.8
45315;SHT31;31051;51.540;5.852;2023-04-25T19:01:37;6.8;66.4
45315;SHT31;31051;51.540;5.852;2023-04-25T19:14:36;6.4;67.1
45315;SHT31;31051;51.540;5.852;2023-04-25T19:27:35;6.1;67.9
45315;SHT31;31051;51.540;5.852;2023-04-25T19:40:35;5.8;69.9
45315;SHT31;31051;51.540;5.852;2023-04-25T19:53:34;5.5;70.8
45315;SHT31;31051;51.540;5.852;2023-04-25T20:06:33;5.3;71.7
45315;SHT31;31051;51.540;5.852;2023-04-25T20:19:32;4.7;72.8
45315;SHT31;31051;51.540;5.852;2023-04-25T20:32:31;4.0;75.9
45315;SHT31;31051;51.540;5.852;2023-04-25T20:45:31;3.7;80.0
45315;SHT31;31051;51.540;5.852;2023-04-25T20:58:30;4.0;79.5
45315;SHT31;31051;51.540;5.852;2023-04-25T21:11:29;4.3;77.6
45315;SHT31;31051;51.540;5.852;2023-04-25T21:24:28;4.1;78.1
45315;SHT31;31051;51.540;5.852;2023-04-25T21:37:28;4.1;78.1
45315;SHT31;31051;51.540;5.852;2023-04-25T21:50:27;4.0;78.0
45315;SHT31;31051;51.540;5.852;2023-04-25T22:03:26;3.9;78.0
45315;SHT31;31051;51.540;5.852;2023-04-25T22:16:25;2.7;81.4
45315;SHT31;31051;51.540;5.852;2023-04-25T22:29:24;2.2;83.0
45315;SHT31;31051;51.540;5.852;2023-04-25T22:42:24;1.8;84.5
45315;SHT31;31051;51.540;5.852;2023-04-25T22:55:23;1.6;83.9
45315;SHT31;31051;51.540;5.852;2023-04-25T23:08:22;1.4;82.7
45315;SHT31;31051;51.540;5.852;2023-04-25T23:21:21;1.3;84.6
45315;SHT31;31051;51.540;5.852;2023-04-25T23:34:20;1.3;85.4
45315;SHT31;31051;51.540;5.852;2023-04-25T23:47:19;1.1;85.8
